Map

Track Data

SID SEASON NUMBER BASIN SUBBASIN NAME ISO_TIME NATURE LAT LON WMO_WIND WMO_PRES WMO_AGENCY TRACK_TYPE DIST2LAND LANDFALL IFLAG USA_AGENCY USA_ATCF_ID USA_LAT USA_LON USA_RECORD USA_STATUS USA_WIND USA_PRES USA_SSHS USA_R34_NE USA_R34_SE USA_R34_SW USA_R34_NW USA_R50_NE USA_R50_SE USA_R50_SW USA_R50_NW USA_R64_NE USA_R64_SE USA_R64_SW USA_R64_NW USA_POCI USA_ROCI USA_RMW USA_EYE TOKYO_LAT TOKYO_LON TOKYO_GRADE TOKYO_WIND TOKYO_PRES TOKYO_R50_DIR TOKYO_R50_LONG TOKYO_R50_SHORT TOKYO_R30_DIR TOKYO_R30_LONG TOKYO_R30_SHORT TOKYO_LAND CMA_LAT CMA_LON CMA_CAT CMA_WIND CMA_PRES HKO_LAT HKO_LON HKO_CAT HKO_WIND HKO_PRES NEWDELHI_LAT NEWDELHI_LON NEWDELHI_GRADE NEWDELHI_WIND NEWDELHI_PRES NEWDELHI_CI NEWDELHI_DP NEWDELHI_POCI REUNION_LAT REUNION_LON REUNION_TYPE REUNION_WIND REUNION_PRES REUNION_TNUM REUNION_CI REUNION_RMW REUNION_R34_NE REUNION_R34_SE REUNION_R34_SW REUNION_R34_NW REUNION_R50_NE REUNION_R50_SE REUNION_R50_SW REUNION_R50_NW REUNION_R64_NE REUNION_R64_SE REUNION_R64_SW REUNION_R64_NW BOM_LAT BOM_LON BOM_TYPE BOM_WIND BOM_PRES BOM_TNUM BOM_CI BOM_RMW BOM_R34_NE BOM_R34_SE BOM_R34_SW BOM_R34_NW BOM_R50_NE BOM_R50_SE BOM_R50_SW BOM_R50_NW BOM_R64_NE BOM_R64_SE BOM_R64_SW BOM_R64_NW BOM_ROCI BOM_POCI BOM_EYE BOM_POS_METHOD BOM_PRES_METHOD NADI_LAT NADI_LON NADI_CAT NADI_WIND NADI_PRES WELLINGTON_LAT WELLINGTON_LON WELLINGTON_WIND WELLINGTON_PRES DS824_LAT DS824_LON DS824_STAGE DS824_WIND DS824_PRES TD9636_LAT TD9636_LON TD9636_STAGE TD9636_WIND TD9636_PRES TD9635_LAT TD9635_LON TD9635_WIND TD9635_PRES TD9635_ROCI NEUMANN_LAT NEUMANN_LON NEUMANN_CLASS NEUMANN_WIND NEUMANN_PRES MLC_LAT MLC_LON MLC_CLASS MLC_WIND MLC_PRES USA_GUST BOM_GUST BOM_GUST_PER REUNION_GUST REUNION_GUST_PER USA_SEAHGT USA_SEARAD_NE USA_SEARAD_SE USA_SEARAD_SW USA_SEARAD_NW STORM_SPEED STORM_DIR
2021257N23291 2021 74 NA NA ODETTE 2021-09-14 00:00:00 NR 22.7000 -68.6000 PROVISIONAL 375 375 O_____________ nhc_working_bt AL152021 22.7000 -68.6000 DB 20 1014 -3 1015 90 90 11 317
2021257N23291 2021 74 NA NA ODETTE 2021-09-14 03:00:00 NR 23.1103 -69.0194 PROVISIONAL 404 404 P_____________ AL152021 23.1103 -69.0194 DB 20 1014 -3 1015 90 90 11 317
2021257N23291 2021 74 NA NA ODETTE 2021-09-14 06:00:00 NR 23.5000 -69.4000 PROVISIONAL 431 431 O_____________ nhc_working_bt AL152021 23.5000 -69.4000 DB 20 1014 -3 1015 90 90 10 319
2021257N23291 2021 74 NA NA ODETTE 2021-09-14 09:00:00 NR 23.8573 -69.7153 PROVISIONAL 453 446 P_____________ AL152021 23.8573 -69.7153 DB 20 1014 -3 1015 92 90 9 322
2021257N23291 2021 74 NA NA ODETTE 2021-09-14 12:00:00 NR 24.2000 -70.0000 PROVISIONAL 455 455 O_____________ nhc_working_bt AL152021 24.2000 -70.0000 DB 20 1014 -3 1015 95 90 9 322
2021257N23291 2021 74 NA NA ODETTE 2021-09-14 15:00:00 NR 24.5575 -70.3076 PROVISIONAL 469 463 P_____________ AL152021 24.5575 -70.3076 DB 20 1014 -3 1015 95 90 9 322
2021257N23291 2021 74 NA NA ODETTE 2021-09-14 18:00:00 NR 24.9000 -70.6000 PROVISIONAL 480 480 O_____________ nhc_working_bt AL152021 24.9000 -70.6000 DB 20 1014 -3 1015 95 90 8 323
2021257N23291 2021 74 NA NA ODETTE 2021-09-14 21:00:00 NR 25.1847 -70.8282 PROVISIONAL 500 495 P_____________ AL152021 25.1847 -70.8282 DB 22 1013 -3 1015 95 90 8 323
2021257N23291 2021 74 NA NA ODETTE 2021-09-15 00:00:00 NR 25.5000 -71.1000 PROVISIONAL 518 518 O_____________ nhc_working_bt AL152021 25.5000 -71.1000 DB 25 1013 -3 1015 95 90 10 318
2021257N23291 2021 74 NA NA ODETTE 2021-09-15 03:00:00 NR 25.9204 -71.5569 PROVISIONAL 544 544 P_____________ AL152021 25.9204 -71.5569 DB 25 1012 -3 1015 95 90 12 318
2021257N23291 2021 74 NA NA ODETTE 2021-09-15 06:00:00 NR 26.4000 -72.0000 PROVISIONAL 589 589 O_____________ nhc_working_bt AL152021 26.4000 -72.0000 DB 25 1012 -3 1015 95 90 11 328
2021257N23291 2021 74 NA NA ODETTE 2021-09-15 09:00:00 NR 26.8696 -72.2161 PROVISIONAL 611 606 P_____________ AL152021 26.8696 -72.2161 DB 27 1011 -3 1015 107 90 11 340
2021257N23291 2021 74 NA NA ODETTE 2021-09-15 12:00:00 NR 27.4000 -72.4000 PROVISIONAL 614 609 O_____________ nhc_working_bt AL152021 27.4000 -72.4000 DB 30 1011 -3 1015 120 90 40 13 340
2021257N23291 2021 74 NA NA ODETTE 2021-09-15 15:00:00 NR 28.0799 -72.7120 PROVISIONAL 623 619 P_____________ AL152021 28.0799 -72.7120 DB 30 1010 -3 1015 135 90 14 335
2021257N23291 2021 74 NA NA ODETTE 2021-09-15 18:00:00 NR 28.7000 -73.1000 PROVISIONAL 630 615 O_____________ nhc_working_bt AL152021 28.7000 -73.1000 DB 30 1010 -3 1015 150 90 40 12 321
2021257N23291 2021 74 NA NA ODETTE 2021-09-15 21:00:00 NR 29.0153 -73.5806 PROVISIONAL 615 609 P_____________ AL152021 29.0153 -73.5806 DB 30 1010 -3 1015 150 105 10 307
2021257N23291 2021 74 NA NA ODETTE 2021-09-16 00:00:00 NR 29.3000 -74.0000 PROVISIONAL 613 580 O_____________ nhc_working_bt AL152021 29.3000 -74.0000 DB 30 1010 -3 1015 150 120 40 10 326
2021257N23291 2021 74 NA NA ODETTE 2021-09-16 03:00:00 NR 29.8122 -74.1881 PROVISIONAL 580 521 P_____________ AL152021 29.8122 -74.1881 DB 30 1010 -3 1015 150 120 11 347
2021257N23291 2021 74 NA NA ODETTE 2021-09-16 06:00:00 DS 30.4000 -74.3000 PROVISIONAL 521 462 O_____________ nhc_working_bt AL152021 30.4000 -74.3000 LO 30 1011 -3 1015 150 120 40 12 348
2021257N23291 2021 74 NA NA ODETTE 2021-09-16 09:00:00 DS 30.9499 -74.4779 PROVISIONAL 462 394 P_____________ AL152021 30.9499 -74.4779 LO 30 1011 -3 1015 150 120 12 343
2021257N23291 2021 74 NA NA ODETTE 2021-09-16 12:00:00 DS 31.5000 -74.7000 PROVISIONAL 394 331 O_____________ nhc_working_bt AL152021 31.5000 -74.7000 LO 30 1011 -3 1015 150 120 40 12 337
2021257N23291 2021 74 NA NA ODETTE 2021-09-16 15:00:00 DS 32.0727 -75.0366 PROVISIONAL 321 259 P_____________ AL152021 32.0727 -75.0366 LO 30 1011 -3 1015 165 135 12 335
2021257N23291 2021 74 NA NA ODETTE 2021-09-16 18:00:00 DS 32.6000 -75.3000 PROVISIONAL 259 219 O_____________ nhc_working_bt AL152021 32.6000 -75.3000 LO 30 1011 -3 1015 180 150 40 10 347
2021257N23291 2021 74 NA NA ODETTE 2021-09-16 21:00:00 DS 33.0374 -75.3108 PROVISIONAL 219 187 P_____________ AL152021 33.0374 -75.3108 LO 30 1011 -3 1015 180 150 8 6
2021257N23291 2021 74 NA NA ODETTE 2021-09-17 00:00:00 DS 33.4000 -75.2000 PROVISIONAL 187 163 O_____________ nhc_working_bt AL152021 33.4000 -75.2000 LO 30 1011 -3 1015 180 150 40 7 11
2021257N23291 2021 74 NA NA ODETTE 2021-09-17 03:00:00 DS 33.6997 -75.1592 PROVISIONAL 163 155 P_____________ AL152021 33.6997 -75.1592 LO 30 1011 -3 1015 180 150 6 16
2021257N23291 2021 74 NA NA ODETTE 2021-09-17 06:00:00 DS 34.0000 -75.0000 PROVISIONAL 155 148 O_____________ nhc_working_bt AL152021 34.0000 -75.0000 LO 30 1011 -3 1015 180 150 40 8 33
2021257N23291 2021 74 NA NA ODETTE 2021-09-17 09:00:00 DS 34.3546 -74.6465 PROVISIONAL 164 161 P_____________ AL152021 34.3546 -74.6465 LO 30 1011 -3 1016 190 165 11 43
2021257N23291 2021 74 NA NA ODETTE 2021-09-17 12:00:00 DS 34.8000 -74.1000 PROVISIONAL 168 168 O_____________ nhc_working_bt AL152021 34.8000 -74.1000 LO 30 1011 -3 1017 200 180 40 15 45
2021257N23291 2021 74 NA NA ODETTE 2021-09-17 15:00:00 DS 35.4082 -73.3744 PROVISIONAL 194 194 P_____________ AL152021 35.4082 -73.3744 LO 32 1010 -3 1017 200 125 19 45
2021257N23291 2021 74 NA NA ODETTE 2021-09-17 18:00:00 TS 36.1200 -72.4600 PROVISIONAL 271 271 O_____________ nhc_working_bt AL152021 36.0000 -72.6000 TS 35 1010 0 100 60 1017 200 70 45 14 50
2021257N23291 2021 74 NA NA ODETTE 2021-09-17 21:00:00 TS 36.3417 -72.0203 PROVISIONAL 318 318 P_____________ AL152021 36.3716 -71.9901 TS 35 1010 0 100 60 1017 200 70 8 60
2021257N23291 2021 74 NA NA ODETTE 2021-09-18 00:00:00 TS 36.5000 -71.6500 PROVISIONAL 357 349 O_____________ nhc_working_bt AL152021 36.7000 -71.4000 TS 35 1010 0 100 60 1017 200 70 11 55
2021257N23291 2021 74 NA NA ODETTE 2021-09-18 03:00:00 TS 36.9411 -70.9378 PROVISIONAL 400 396 P_____________ AL152021 37.1493 -70.7447 TS 37 1009 0 135 60 1016 200 80 16 54
2021257N23291 2021 74 NA NA ODETTE 2021-09-18 06:00:00 TS 37.4625 -70.0041 PROVISIONAL 429 423 O_____________ nhc_working_bt AL152021 37.6000 -70.0000 TS 40 1008 0 170 150 60 1016 200 90 50 12 150 90 90 18 58
2021257N23291 2021 74 NA NA ODETTE 2021-09-18 09:00:00 TS 37.8890 -69.0317 PROVISIONAL 426 412 P_____________ AL152021 37.9869 -69.1522 TS 40 1005 0 170 150 60 1016 235 90 12 165 75 90 18 63
2021257N23291 2021 74 NA NA ODETTE 2021-09-18 12:00:00 TS 38.2625 -68.0283 PROVISIONAL 414 414 O_____________ nhc_working_bt AL152021 38.3000 -68.2000 TS 40 1002 0 170 150 60 1016 270 90 50 12 180 120 60 90 17 68
2021257N23291 2021 74 NA NA ODETTE 2021-09-18 15:00:00 TS 38.5011 -67.0593 PROVISIONAL 432 432 P_____________ AL152021 38.5300 -67.1567 TS 40 1001 0 175 150 90 1016 285 105 12 195 150 60 90 16 74
2021257N23291 2021 74 NA NA ODETTE 2021-09-18 18:00:00 ET 38.7000 -66.1000 PROVISIONAL 469 469 O_____________ nhc_working_bt AL152021 38.7000 -66.1000 EX 40 1001 -4 180 150 180 120 1016 300 120 50 12 210 180 60 90 16 74
2021257N23291 2021 74 NA NA ODETTE 2021-09-18 21:00:00 ET 38.9380 -65.1386 PROVISIONAL 512 484 P_____________ AL152021 38.7962 -65.1391 EX 40 1001 -4 180 165 180 120 1016 300 120 16 71
2021257N23291 2021 74 NA NA ODETTE 2021-09-19 00:00:00 ET 39.2277 -64.1708 PROVISIONAL 487 461 O_____________ nhc_working_bt AL152021 39.0000 -64.2000 EX 40 1001 -4 180 180 180 120 1016 300 120 16 65
2021257N23291 2021 74 NA NA ODETTE 2021-09-19 03:00:00 ET 39.6268 -63.2084 PROVISIONAL 467 452 P_____________ AL152021 39.4642 -63.2946 EX 42 1000 -4 185 185 1016 300 125 18 60
2021257N23291 2021 74 NA NA ODETTE 2021-09-19 06:00:00 ET 40.1343 -62.1555 PROVISIONAL 456 452 O_____________ nhc_working_bt AL152021 40.1000 -62.2000 EX 45 999 -4 190 190 1016 300 130 21 59
2021257N23291 2021 74 NA NA ODETTE 2021-09-19 09:00:00 ET 40.7085 -60.8537 PROVISIONAL 466 450 P_____________ AL152021 40.7881 -60.6402 EX 45 996 -4 170 230 1016 300 120 24 59
2021257N23291 2021 74 NA NA ODETTE 2021-09-19 12:00:00 ET 41.3473 -59.4591 PROVISIONAL 452 426 O_____________ nhc_working_bt AL152021 41.5000 -59.0000 EX 45 994 -4 150 270 180 1016 300 110 23 58
2021257N23291 2021 74 NA NA ODETTE 2021-09-19 15:00:00 ET 41.9642 -58.2070 PROVISIONAL 425 424 P_____________ AL152021 42.1621 -57.6789 EX 45 993 -4 150 270 180 1016 300 100 22 56
2021257N23291 2021 74 NA NA ODETTE 2021-09-19 18:00:00 ET 42.5641 -57.0098 PROVISIONAL 429 411 O_____________ nhc_working_bt AL152021 42.8000 -56.5000 EX 45 992 -4 150 270 180 1016 300 90 21 56
2021257N23291 2021 74 NA NA ODETTE 2021-09-19 21:00:00 ET 43.1452 -55.8223 PROVISIONAL 411 344 P_____________ AL152021 43.4274 -55.3624 EX 47 990 -4 160 230 180 1016 300 80 21 58
2021257N23291 2021 74 NA NA ODETTE 2021-09-20 00:00:00 ET 43.6702 -54.6178 PROVISIONAL 331 277 O_____________ nhc_working_bt AL152021 44.0000 -54.2000 EX 50 989 -4 170 190 130 180 80 50 1016 300 70 21 61
2021257N23291 2021 74 NA NA ODETTE 2021-09-20 03:00:00 ET 44.1690 -53.3058 PROVISIONAL 266 245 P_____________ AL152021 44.5787 -52.8245 EX 50 989 -4 170 190 130 180 80 50 1016 300 70 20 66
2021257N23291 2021 74 NA NA ODETTE 2021-09-20 06:00:00 ET 44.4877 -52.0304 PROVISIONAL 251 251 O_____________ nhc_working_bt AL152021 44.9000 -51.5000 EX 50 989 -4 170 190 130 180 80 50 1016 300 70 17 79
2021257N23291 2021 74 NA NA ODETTE 2021-09-20 09:00:00 ET 44.5135 -50.9022 PROVISIONAL 293 293 P_____________ AL152021 44.7233 -50.4458 EX 50 989 -4 170 190 130 180 80 50 1016 300 70 15 94
2021257N23291 2021 74 NA NA ODETTE 2021-09-20 12:00:00 ET 44.3933 -49.9088 PROVISIONAL 354 354 O_____________ nhc_working_bt AL152021 44.4000 -49.6000 EX 50 989 -4 170 190 130 180 80 50 1016 300 70 14 96
2021257N23291 2021 74 NA NA ODETTE 2021-09-20 15:00:00 ET 44.3744 -49.0106 PROVISIONAL 407 407 P_____________ AL152021 44.3933 -48.8896 EX 50 991 -4 175 190 150 180 80 50 1016 300 65 12 98
2021257N23291 2021 74 NA NA ODETTE 2021-09-20 18:00:00 ET 44.2191 -48.1745 PROVISIONAL 471 471 O_____________ nhc_working_bt AL152021 44.3000 -48.2000 EX 50 993 -4 180 190 170 180 80 50 1016 300 60 13 114
2021257N23291 2021 74 NA NA ODETTE 2021-09-20 21:00:00 ET 43.8164 -47.2964 PROVISIONAL 555 555 P_____________ AL152021 43.8630 -47.3333 EX 50 993 -4 180 190 170 180 80 50 1016 300 60 16 130
2021257N23291 2021 74 NA NA ODETTE 2021-09-21 00:00:00 ET 43.2000 -46.5000 PROVISIONAL 646 646 O_____________ nhc_working_bt AL152021 43.2000 -46.5000 EX 50 993 -4 180 190 170 180 80 50 1016 300 60 17 144
2021257N23291 2021 74 NA NA ODETTE 2021-09-21 03:00:00 ET 42.4264 -45.9273 PROVISIONAL 741 741 P_____________ AL152021 42.4203 -45.9257 EX 50 993 -4 180 190 170 180 80 50 1016 300 60 18 151
2021257N23291 2021 74 NA NA ODETTE 2021-09-21 06:00:00 ET 41.6000 -45.3000 PROVISIONAL 838 838 O_____________ nhc_working_bt AL152021 41.6000 -45.3000 EX 50 993 -4 180 190 170 180 80 50 1016 300 60 20 143
2021257N23291 2021 74 NA NA ODETTE 2021-09-21 09:00:00 ET 40.8188 -44.3271 PROVISIONAL 960 960 P_____________ AL152021 40.8188 -44.3271 EX 47 995 -4 180 190 170 180 80 50 1016 300 60 21 133
2021257N23291 2021 74 NA NA ODETTE 2021-09-21 12:00:00 ET 40.2000 -43.3000 PROVISIONAL 1066 1066 O_____________ nhc_working_bt AL152021 40.2000 -43.3000 EX 45 997 -4 180 190 170 180 80 50 1016 300 60 60 17 126
2021257N23291 2021 74 NA NA ODETTE 2021-09-21 15:00:00 ET 39.7980 -42.5081 PROVISIONAL 1146 1146 P_____________ AL152021 39.7980 -42.5081 EX 45 997 -4 180 190 170 180 1016 300 60 13 112
2021257N23291 2021 74 NA NA ODETTE 2021-09-21 18:00:00 ET 39.7000 -41.7000 PROVISIONAL 1203 1203 O_____________ nhc_working_bt AL152021 39.7000 -41.7000 EX 45 997 -4 180 190 170 180 1016 300 60 15 87
2021257N23291 2021 74 NA NA ODETTE 2021-09-21 21:00:00 ET 39.8904 -40.5199 PROVISIONAL 1263 1263 P_____________ AL152021 39.8904 -40.5199 EX 45 997 -4 180 140 175 210 1015 300 60 17 70
2021257N23291 2021 74 NA NA ODETTE 2021-09-22 00:00:00 ET 40.3000 -39.6000 PROVISIONAL 1293 1266 O_____________ nhc_working_bt AL152021 40.3000 -39.6000 EX 45 997 -4 180 90 180 240 1014 300 60 12 41
2021257N23291 2021 74 NA NA ODETTE 2021-09-22 03:00:00 ET 40.7794 -39.5056 PROVISIONAL 1266 1213 P_____________ AL152021 40.7761 -39.5321 EX 45 997 -4 195 135 165 240 1014 300 60 10 351
2021257N23291 2021 74 NA NA ODETTE 2021-09-22 06:00:00 ET 41.3000 -39.8000 PROVISIONAL 1213 1188 O_____________ nhc_working_bt AL152021 41.3000 -39.8000 EX 45 997 -4 210 180 150 240 1014 300 60 10 346
2021257N23291 2021 74 NA NA ODETTE 2021-09-22 09:00:00 ET 41.7424 -39.8285 PROVISIONAL 1188 1152 P_____________ AL152021 41.7424 -39.8285 EX 45 997 -4 210 180 150 240 1014 300 60 9 355
2021257N23291 2021 74 NA NA ODETTE 2021-09-22 12:00:00 ET 42.2000 -39.9000 PROVISIONAL 1152 1110 O_____________ nhc_working_bt AL152021 42.2000 -39.9000 EX 45 997 -4 210 180 150 240 1014 300 60 10 349
2021257N23291 2021 74 NA NA ODETTE 2021-09-22 15:00:00 ET 42.7574 -40.0973 PROVISIONAL 1105 1055 P_____________ AL152021 42.7574 -40.0973 EX 42 998 -4 150 150 135 220 1014 300 60 12 342
2021257N23291 2021 74 NA NA ODETTE 2021-09-22 18:00:00 ET 43.3000 -40.4000 PROVISIONAL 1055 1000 O_____________ nhc_working_bt AL152021 43.3000 -40.4000 EX 40 999 -4 90 120 120 200 1014 300 60 11 333
2021257N23291 2021 74 NA NA ODETTE 2021-09-22 21:00:00 ET 43.7753 -40.7992 PROVISIONAL 1000 956 P_____________ AL152021 43.7753 -40.7992 EX 40 999 -4 100 115 120 160 1015 275 60 10 324
2021257N23291 2021 74 NA NA ODETTE 2021-09-23 00:00:00 ET 44.1000 -41.2000 PROVISIONAL 956 937 O_____________ nhc_working_bt AL152021 44.1000 -41.2000 EX 40 999 -4 110 110 120 120 1016 250 60 6 313
2021257N23291 2021 74 NA NA ODETTE 2021-09-23 03:00:00 ET 44.2096 -41.4584 PROVISIONAL 930 916 P_____________ AL152021 44.2096 -41.4584 EX 40 999 -4 110 110 120 120 1016 250 60 4 286
2021257N23291 2021 74 NA NA ODETTE 2021-09-23 06:00:00 ET 44.2000 -41.7000 PROVISIONAL 916 888 O_____________ nhc_working_bt AL152021 44.2000 -41.7000 EX 40 999 -4 110 110 120 120 1016 250 60 5 273
2021257N23291 2021 74 NA NA ODETTE 2021-09-23 09:00:00 ET 44.2304 -42.1101 PROVISIONAL 888 867 P_____________ AL152021 44.2304 -42.1101 EX 40 999 -4 110 110 120 120 1016 250 60 5 270
2021257N23291 2021 74 NA NA ODETTE 2021-09-23 12:00:00 ET 44.2000 -42.4000 PROVISIONAL 867 867 O_____________ nhc_working_bt AL152021 44.2000 -42.4000 EX 40 999 -4 110 110 120 120 1016 250 60 3 221
2021257N23291 2021 74 NA NA ODETTE 2021-09-23 15:00:00 ET 44.0272 -42.3617 PROVISIONAL 877 877 P_____________ AL152021 44.0272 -42.3617 EX 37 999 -4 85 85 95 105 1016 250 60 4 144
2021257N23291 2021 74 NA NA ODETTE 2021-09-23 18:00:00 ET 43.9000 -42.1000 PROVISIONAL 904 904 O_____________ nhc_working_bt AL152021 43.9000 -42.1000 EX 35 999 -4 60 60 70 90 1016 250 60 5 90
2021257N23291 2021 74 NA NA ODETTE 2021-09-23 21:00:00 ET 44.0281 -41.6787 PROVISIONAL 926 926 P_____________ AL152021 44.0281 -41.6787 EX 35 999 -4 55 55 70 1014 230 60 6 62
2021257N23291 2021 74 NA NA ODETTE 2021-09-24 00:00:00 ET 44.2000 -41.3000 PROVISIONAL 944 939 O_____________ nhc_working_bt AL152021 44.2000 -41.3000 EX 35 999 -4 50 50 70 1013 210 60 4 48
2021257N23291 2021 74 NA NA ODETTE 2021-09-24 03:00:00 ET 44.2746 -41.3004 PROVISIONAL 939 939 P_____________ AL152021 44.2746 -41.3004 EX 35 999 -4 50 50 70 1013 210 60 0 0
2021257N23291 2021 74 NA NA ODETTE 2021-09-24 06:00:00 ET 44.2000 -41.3000 PROVISIONAL 944 944 O_____________ nhc_working_bt AL152021 44.2000 -41.3000 EX 35 999 -4 50 50 70 1013 210 60 4 143
2021257N23291 2021 74 NA NA ODETTE 2021-09-24 09:00:00 ET 43.9180 -40.9288 PROVISIONAL 988 988 P_____________ AL152021 43.9180 -40.9288 EX 35 999 -4 50 50 70 1012 205 65 9 141
2021257N23291 2021 74 NA NA ODETTE 2021-09-24 12:00:00 ET 43.5000 -40.5000 PROVISIONAL 1037 1037 O_____________ nhc_working_bt AL152021 43.5000 -40.5000 EX 35 1000 -4 50 50 70 1011 200 70 9 151
2021257N23291 2021 74 NA NA ODETTE 2021-09-24 15:00:00 ET 43.0945 -40.3095 PROVISIONAL 1074 1074 P_____________ AL152021 43.0944 -40.3095 EX 35 1001 -4 50 50 70 1010 200 70 9 162
2021257N23291 2021 74 NA NA ODETTE 2021-09-24 18:00:00 ET 42.6000 -40.1000 PROVISIONAL 1115 1115 O_____________ nhc_working_bt AL152021 42.6000 -40.1000 EX 35 1002 -4 50 50 70 1010 200 70 12 157
2021257N23291 2021 74 NA NA ODETTE 2021-09-24 21:00:00 ET 41.9505 -39.6555 PROVISIONAL 1177 1177 P_____________ AL152021 41.9505 -39.6555 EX 35 1002 -4 70 1010 200 70 15 153
2021257N23291 2021 74 NA NA ODETTE 2021-09-25 00:00:00 ET 41.3000 -39.2000 PROVISIONAL 1254 1254 O_____________ nhc_working_bt AL152021 41.3000 -39.2000 EX 35 1002 -4 70 120 1010 200 70 12 153
2021257N23291 2021 74 NA NA ODETTE 2021-09-25 03:00:00 ET 40.8795 -38.9454 PROVISIONAL 1300 1300 P_____________ AL152021 40.8795 -38.9454 EX 35 1002 -4 70 120 1010 200 70 10 157
2021257N23291 2021 74 NA NA ODETTE 2021-09-25 06:00:00 ET 40.4000 -38.7000 PROVISIONAL 1346 1346 O_____________ nhc_working_bt AL152021 40.4000 -38.7000 EX 35 1002 -4 70 120 1010 200 70 14 158
2021257N23291 2021 74 NA NA ODETTE 2021-09-25 09:00:00 ET 39.5880 -38.2441 PROVISIONAL 1434 1434 P_____________ AL152021 39.5880 -38.2441 EX 35 1004 -4 105 1010 200 70 18 160
2021257N23291 2021 74 NA NA ODETTE 2021-09-25 12:00:00 ET 38.7000 -37.9000 PROVISIONAL 1519 1519 O_____________ nhc_working_bt AL152021 38.7000 -37.9000 EX 35 1006 -4 90 1010 200 70 16 171
2021257N23291 2021 74 NA NA ODETTE 2021-09-25 15:00:00 ET 37.9773 -37.9195 PROVISIONAL 1571 1571 P_____________ AL152021 37.9773 -37.9195 EX 35 1006 -4 95 1010 200 70 14 186
2021257N23291 2021 74 NA NA ODETTE 2021-09-25 18:00:00 ET 37.3000 -38.1000 PROVISIONAL 1613 1613 O_____________ nhc_working_bt AL152021 37.3000 -38.1000 EX 35 1006 -4 100 1010 200 70 14 191
2021257N23291 2021 74 NA NA ODETTE 2021-09-25 21:00:00 ET 36.6076 -38.2645 PROVISIONAL 1656 1656 P_____________ AL152021 36.6076 -38.2645 EX 35 1007 -4 100 1010 200 70 14 190
2021257N23291 2021 74 NA NA ODETTE 2021-09-26 00:00:00 ET 35.9000 -38.4000 PROVISIONAL 1708 O_____________ nhc_working_bt AL152021 35.9000 -38.4000 EX 35 1009 -4 100 1010 200 70 14 189

About IBTrACS Database

This database is a web-friendly format of International Best Track Archive for Climate Stewardship (IBTrACS), a global best track data archive curated by NOAA dating back to 1842.

Updated: 2021-10-25